Time;durP1;ratioP1;P1;durP2;ratioP2;P2;SDS_P1;SDS_P2;PMS_P1;PMS_P2;Temp;Humidity;BMP_temperature;BMP_pressure;BME280_temperature;BME280_humidity;BME280_pressure;Samples;Min_cycle;Max_cycle;Signal;HPM_P1;HPM_P2
2023/04/26 00:00:07;;;;;;;;;;;22.40;54.70;;;;;;1569051;74;808;-69
2023/04/26 00:02:07;;;;;;;;;;;22.30;54.90;;;;;;1569774;74;1598;-68
2023/04/26 00:04:09;;;;;;;;;;;22.40;54.70;;;;;;1575981;74;1913;-69
2023/04/26 00:06:12;;;;;;;;;;;22.30;54.80;;;;;;1563123;74;703;-70
2023/04/26 00:08:14;;;;;;;;;;;22.40;54.70;;;;;;1573328;73;1110;-69
2023/04/26 00:10:16;;;;;;;;;;;22.40;54.60;;;;;;1570559;74;838;-69
2023/04/26 00:12:18;;;;;;;;;;;22.40;54.50;;;;;;1572210;74;775;-71
2023/04/26 00:14:20;;;;;;;;;;;22.40;54.70;;;;;;1567890;74;722;-70
2023/04/26 00:16:22;;;;;;;;;;;22.40;55.00;;;;;;1563935;74;700;-71
2023/04/26 00:18:24;;;;;;;;;;;22.30;55.20;;;;;;1566276;74;1191;-69
2023/04/26 00:20:26;;;;;;;;;;;22.30;55.40;;;;;;1573459;74;792;-72
2023/04/26 00:22:28;;;;;;;;;;;22.40;55.50;;;;;;1564094;74;757;-69
2023/04/26 00:24:31;;;;;;;;;;;22.30;55.20;;;;;;1567606;74;1918;-70
2023/04/26 00:26:33;;;;;;;;;;;22.30;55.50;;;;;;1567289;74;706;-70
2023/04/26 00:28:35;;;;;;;;;;;22.30;55.30;;;;;;1569342;74;1154;-70
2023/04/26 00:30:40;;;;;;;;;;;22.30;55.10;;;;;;1573035;74;726;-70
2023/04/26 00:32:40;;;;;;;;;;;22.40;55.00;;;;;;1568020;74;1602;-70
2023/04/26 00:34:42;;;;;;;;;;;22.40;55.10;;;;;;1573927;74;694;-70
2023/04/26 00:36:44;;;;;;;;;;;22.40;55.00;;;;;;1560453;74;926;-70
2023/04/26 00:38:46;;;;;;;;;;;22.40;54.70;;;;;;1557365;74;1132;-70
2023/04/26 00:40:48;;;;;;;;;;;22.40;54.50;;;;;;1561804;74;790;-72
2023/04/26 00:42:52;;;;;;;;;;;22.50;54.50;;;;;;1568596;74;698;-70
2023/04/26 00:44:56;;;;;;;;;;;22.40;54.50;;;;;;1573226;74;1980;-69
2023/04/26 00:46:57;;;;;;;;;;;22.50;54.70;;;;;;1574492;74;1196;-70
2023/04/26 00:48:59;;;;;;;;;;;22.40;54.50;;;;;;1564786;74;1160;-70
2023/04/26 00:51:01;;;;;;;;;;;22.40;54.60;;;;;;1573838;74;727;-71
2023/04/26 00:53:03;;;;;;;;;;;22.40;54.70;;;;;;1570156;74;715;-69
2023/04/26 00:55:06;;;;;;;;;;;22.40;54.70;;;;;;1575773;74;775;-70
2023/04/26 00:57:08;;;;;;;;;;;22.40;54.70;;;;;;1569938;74;710;-72
2023/04/26 00:59:10;;;;;;;;;;;22.40;54.70;;;;;;1577076;74;1118;-70
2023/04/26 01:01:12;;;;;;;;;;;22.40;54.70;;;;;;1565356;74;600;-70
2023/04/26 01:03:14;;;;;;;;;;;22.40;54.70;;;;;;1576914;74;1893;-71
2023/04/26 01:05:16;;;;;;;;;;;22.30;54.70;;;;;;1563434;74;746;-71
2023/04/26 01:07:18;;;;;;;;;;;22.40;54.40;;;;;;1563872;74;750;-71
2023/04/26 01:09:20;;;;;;;;;;;22.40;54.70;;;;;;1580147;73;1119;-70
2023/04/26 01:11:22;;;;;;;;;;;22.40;54.60;;;;;;1571179;74;806;-69
2023/04/26 01:13:25;;;;;;;;;;;22.30;54.70;;;;;;1576784;74;932;-72
2023/04/26 01:15:31;;;;;;;;;;;22.40;54.70;;;;;;1571385;74;751;-69
2023/04/26 01:17:33;;;;;;;;;;;22.40;54.60;;;;;;1554973;74;1646;-68
2023/04/26 01:19:36;;;;;;;;;;;22.50;54.40;;;;;;1568772;74;1163;-69
2023/04/26 01:21:38;;;;;;;;;;;22.50;54.30;;;;;;1573649;74;805;-69
2023/04/26 01:23:40;;;;;;;;;;;22.50;54.20;;;;;;1573529;74;1934;-69
2023/04/26 01:25:42;;;;;;;;;;;22.50;54.10;;;;;;1564205;74;819;-71
2023/04/26 01:27:44;;;;;;;;;;;22.50;54.20;;;;;;1578003;74;1177;-69
2023/04/26 01:29:46;;;;;;;;;;;22.50;54.00;;;;;;1567369;74;1765;-69
2023/04/26 01:31:48;;;;;;;;;;;22.50;54.10;;;;;;1569693;74;731;-69
2023/04/26 01:33:50;;;;;;;;;;;22.50;54.20;;;;;;1572978;74;745;-70
2023/04/26 01:35:52;;;;;;;;;;;22.50;54.40;;;;;;1558272;74;706;-69
2023/04/26 01:37:54;;;;;;;;;;;22.40;54.10;;;;;;1576836;73;1152;-69
2023/04/26 01:39:55;;;;;;;;;;;22.50;54.20;;;;;;1575106;74;883;-69
2023/04/26 01:41:57;;;;;;;;;;;22.50;54.30;;;;;;1572401;74;836;-70
2023/04/26 01:44:00;;;;;;;;;;;22.50;54.40;;;;;;1578345;74;1950;-70
2023/04/26 01:46:02;;;;;;;;;;;22.40;54.40;;;;;;1569101;74;715;-71
2023/04/26 01:48:03;;;;;;;;;;;22.40;54.40;;;;;;1577487;74;1109;-71
2023/04/26 01:50:06;;;;;;;;;;;22.30;54.60;;;;;;1579773;74;761;-70
2023/04/26 01:52:08;;;;;;;;;;;22.40;54.70;;;;;;1579307;74;717;-71
2023/04/26 01:54:10;;;;;;;;;;;22.30;54.90;;;;;;1569791;74;878;-69
2023/04/26 01:56:12;;;;;;;;;;;22.30;54.90;;;;;;1570127;74;779;-70
2023/04/26 02:00:43;;;;;;;;;;;22.20;54.90;;;;;;1613951;72;1662;-60
2023/04/26 02:02:45;;;;;;;;;;;22.30;55.00;;;;;;1603497;72;775;-60
2023/04/26 02:04:46;;;;;;;;;;;22.20;54.70;;;;;;1603301;72;1948;-60
2023/04/26 02:06:48;;;;;;;;;;;22.20;54.80;;;;;;1585716;73;758;-61
2023/04/26 02:08:50;;;;;;;;;;;22.20;54.70;;;;;;1582041;73;752;-59
2023/04/26 02:10:52;;;;;;;;;;;22.20;54.70;;;;;;1576587;73;787;-59
2023/04/26 02:12:54;;;;;;;;;;;22.20;54.60;;;;;;1583833;73;777;-59
2023/04/26 02:14:56;;;;;;;;;;;22.20;54.70;;;;;;1581434;73;1164;-59
2023/04/26 02:16:58;;;;;;;;;;;22.20;54.70;;;;;;1587503;73;677;-59
2023/04/26 02:19:01;;;;;;;;;;;22.20;54.80;;;;;;1583225;73;847;-58
2023/04/26 02:21:03;;;;;;;;;;;22.20;54.80;;;;;;1583615;73;741;-60
2023/04/26 02:23:05;;;;;;;;;;;22.20;54.70;;;;;;1549148;74;1135;-59
2023/04/26 02:25:07;;;;;;;;;;;22.30;54.70;;;;;;1584055;73;1925;-59
2023/04/26 02:27:09;;;;;;;;;;;22.20;54.50;;;;;;1585615;73;745;-59
2023/04/26 02:29:10;;;;;;;;;;;22.20;54.50;;;;;;1590090;73;803;-60
2023/04/26 02:31:12;;;;;;;;;;;22.20;54.50;;;;;;1586478;73;785;-60
2023/04/26 02:33:14;;;;;;;;;;;22.20;54.40;;;;;;1596601;73;788;-60
2023/04/26 02:35:16;;;;;;;;;;;22.20;54.60;;;;;;1589787;73;1154;-59
2023/04/26 02:37:18;;;;;;;;;;;22.20;54.40;;;;;;1578992;73;787;-60
2023/04/26 02:39:20;;;;;;;;;;;22.20;54.40;;;;;;1590267;73;781;-60
2023/04/26 02:41:22;;;;;;;;;;;22.30;54.50;;;;;;1596549;73;666;-59
2023/04/26 02:43:24;;;;;;;;;;;22.30;54.70;;;;;;1588064;73;778;-58
2023/04/26 02:45:26;;;;;;;;;;;22.30;54.40;;;;;;1586468;73;1934;-59
2023/04/26 02:47:28;;;;;;;;;;;22.30;54.20;;;;;;1573496;73;769;-59
2023/04/26 02:49:30;;;;;;;;;;;22.40;54.10;;;;;;1585897;73;765;-60
2023/04/26 02:51:32;;;;;;;;;;;22.50;54.10;;;;;;1599896;73;765;-59
2023/04/26 02:53:34;;;;;;;;;;;22.40;54.20;;;;;;1587636;73;763;-60
2023/04/26 02:55:37;;;;;;;;;;;22.50;54.30;;;;;;1596422;74;1147;-60
2023/04/26 02:57:39;;;;;;;;;;;22.40;54.20;;;;;;1580210;73;750;-60
2023/04/26 02:59:42;;;;;;;;;;;22.30;54.40;;;;;;1591580;74;757;-61
2023/04/26 03:01:44;;;;;;;;;;;22.40;54.30;;;;;;1589667;73;661;-61
2023/04/26 03:03:46;;;;;;;;;;;22.40;54.30;;;;;;1581180;73;756;-61
2023/04/26 03:05:48;;;;;;;;;;;22.30;54.30;;;;;;1594285;73;1945;-62
2023/04/26 03:07:50;;;;;;;;;;;22.40;54.30;;;;;;1578494;73;660;-60
2023/04/26 03:09:52;;;;;;;;;;;22.40;54.40;;;;;;1576486;74;772;-60
2023/04/26 03:11:53;;;;;;;;;;;22.30;54.60;;;;;;1592759;73;789;-61
2023/04/26 03:13:55;;;;;;;;;;;22.40;54.60;;;;;;1578545;73;799;-61
2023/04/26 03:15:57;;;;;;;;;;;22.30;54.90;;;;;;1576333;73;1166;-61
2023/04/26 03:17:59;;;;;;;;;;;22.30;54.90;;;;;;1582611;73;797;-62
2023/04/26 03:20:03;;;;;;;;;;;22.20;54.90;;;;;;1594263;73;632;-62
2023/04/26 03:22:05;;;;;;;;;;;22.20;54.90;;;;;;1589930;73;1577;-62
2023/04/26 03:24:06;;;;;;;;;;;22.20;55.20;;;;;;1585544;73;1941;-62
2023/04/26 03:26:08;;;;;;;;;;;22.20;55.10;;;;;;1594074;73;1214;-62
2023/04/26 03:28:10;;;;;;;;;;;22.20;55.20;;;;;;1574318;74;793;-63
2023/04/26 03:30:12;;;;;;;;;;;22.20;55.30;;;;;;1585120;73;776;-61
2023/04/26 03:32:14;;;;;;;;;;;22.20;55.30;;;;;;1592086;73;767;-62
2023/04/26 03:34:16;;;;;;;;;;;22.20;55.40;;;;;;1589460;73;763;-61
2023/04/26 03:36:18;;;;;;;;;;;22.20;55.50;;;;;;1575720;73;1148;-61
2023/04/26 03:38:21;;;;;;;;;;;22.10;55.40;;;;;;1597412;73;779;-61
2023/04/26 03:40:23;;;;;;;;;;;22.20;55.50;;;;;;1584750;74;758;-61
2023/04/26 03:42:25;;;;;;;;;;;22.20;55.50;;;;;;1580980;73;842;-61
2023/04/26 03:44:26;;;;;;;;;;;22.20;55.50;;;;;;1588193;73;1941;-61
2023/04/26 03:46:28;;;;;;;;;;;22.10;55.50;;;;;;1593140;73;765;-60
2023/04/26 03:48:30;;;;;;;;;;;22.10;55.40;;;;;;1595875;73;772;-59
2023/04/26 03:50:32;;;;;;;;;;;22.10;55.50;;;;;;1585042;73;660;-60
2023/04/26 03:52:34;;;;;;;;;;;22.10;55.40;;;;;;1574123;73;764;-59
2023/04/26 03:54:36;;;;;;;;;;;22.20;55.20;;;;;;1594286;73;1158;-59
2023/04/26 03:56:39;;;;;;;;;;;22.20;55.00;;;;;;1581423;73;643;-59
2023/04/26 03:58:41;;;;;;;;;;;22.30;55.00;;;;;;1579923;73;781;-59
2023/04/26 04:00:43;;;;;;;;;;;22.30;54.80;;;;;;1594837;73;742;-60
2023/04/26 04:02:45;;;;;;;;;;;22.40;54.70;;;;;;1571740;73;807;-60
2023/04/26 04:04:46;;;;;;;;;;;22.30;54.70;;;;;;1586268;73;1934;-59
2023/04/26 04:06:48;;;;;;;;;;;22.30;54.50;;;;;;1582730;73;758;-60
2023/04/26 04:08:50;;;;;;;;;;;22.30;54.50;;;;;;1579959;73;762;-61
2023/04/26 04:10:52;;;;;;;;;;;22.20;54.40;;;;;;1584149;74;753;-60
2023/04/26 04:12:54;;;;;;;;;;;22.20;54.50;;;;;;1584420;73;767;-61
2023/04/26 04:14:56;;;;;;;;;;;22.30;54.40;;;;;;1582811;73;1170;-60
2023/04/26 04:16:58;;;;;;;;;;;22.40;54.40;;;;;;1587846;73;1483;-61
2023/04/26 04:19:00;;;;;;;;;;;22.40;54.30;;;;;;1587535;73;768;-61
2023/04/26 04:21:02;;;;;;;;;;;22.40;54.30;;;;;;1596836;73;737;-61
2023/04/26 04:23:06;;;;;;;;;;;22.40;54.20;;;;;;1587370;73;759;-60
2023/04/26 04:25:09;;;;;;;;;;;22.30;54.20;;;;;;1584410;74;1936;-60
2023/04/26 04:27:11;;;;;;;;;;;22.30;54.10;;;;;;1591305;73;752;-61
2023/04/26 04:29:12;;;;;;;;;;;22.40;53.90;;;;;;1577017;73;785;-60
2023/04/26 04:31:14;;;;;;;;;;;22.40;53.80;;;;;;1583574;73;1392;-61
2023/04/26 04:33:16;;;;;;;;;;;22.50;53.80;;;;;;1591714;73;786;-61
2023/04/26 04:35:18;;;;;;;;;;;22.40;53.70;;;;;;1588849;73;1245;-61
2023/04/26 04:37:21;;;;;;;;;;;22.30;53.70;;;;;;1585106;73;747;-60
2023/04/26 04:39:23;;;;;;;;;;;22.30;54.20;;;;;;1585618;73;741;-61
2023/04/26 04:41:25;;;;;;;;;;;22.30;54.20;;;;;;1595043;73;763;-61
2023/04/26 04:43:27;;;;;;;;;;;22.20;54.80;;;;;;1588762;74;681;-60
2023/04/26 04:45:29;;;;;;;;;;;22.20;54.70;;;;;;1577640;73;1938;-60
2023/04/26 04:47:31;;;;;;;;;;;22.30;54.90;;;;;;1580172;73;771;-60
2023/04/26 04:49:33;;;;;;;;;;;22.20;54.70;;;;;;1585735;73;771;-61
2023/04/26 04:51:35;;;;;;;;;;;22.20;54.70;;;;;;1580462;74;767;-60
2023/04/26 04:53:36;;;;;;;;;;;22.20;54.70;;;;;;1588273;73;791;-59
2023/04/26 04:55:38;;;;;;;;;;;22.20;54.40;;;;;;1583216;73;1159;-59
2023/04/26 04:57:41;;;;;;;;;;;22.20;54.50;;;;;;1581181;73;763;-59
2023/04/26 04:59:42;;;;;;;;;;;22.20;54.40;;;;;;1586481;73;1407;-60
2023/04/26 05:01:44;;;;;;;;;;;22.30;54.40;;;;;;1585087;73;812;-60
2023/04/26 05:03:46;;;;;;;;;;;22.30;54.40;;;;;;1583774;73;708;-60
2023/04/26 05:05:48;;;;;;;;;;;22.30;54.30;;;;;;1577805;73;1953;-60
2023/04/26 05:07:50;;;;;;;;;;;22.30;54.30;;;;;;1581137;73;650;-59
2023/04/26 05:09:52;;;;;;;;;;;22.30;54.20;;;;;;1577920;73;784;-61
2023/04/26 05:11:54;;;;;;;;;;;22.30;54.10;;;;;;1581272;73;783;-59
2023/04/26 05:13:56;;;;;;;;;;;22.20;54.20;;;;;;1580726;73;1418;-59
2023/04/26 05:15:57;;;;;;;;;;;22.20;54.20;;;;;;1588320;73;1164;-60
2023/04/26 05:17:59;;;;;;;;;;;22.20;54.40;;;;;;1591089;74;791;-60
2023/04/26 05:20:05;;;;;;;;;;;22.20;55.00;;;;;;1584647;74;752;-60
2023/04/26 05:22:05;;;;;;;;;;;22.10;55.00;;;;;;1591520;73;1516;-60
2023/04/26 05:24:07;;;;;;;;;;;22.10;55.00;;;;;;1570495;73;756;-59
2023/04/26 05:26:10;;;;;;;;;;;22.10;54.90;;;;;;1592946;73;1940;-60
2023/04/26 05:28:13;;;;;;;;;;;22.10;55.00;;;;;;1582831;73;1586;-60
2023/04/26 05:30:15;;;;;;;;;;;22.10;55.00;;;;;;1578157;73;766;-59
2023/04/26 05:32:17;;;;;;;;;;;22.10;54.90;;;;;;1591327;73;663;-59
2023/04/26 05:34:19;;;;;;;;;;;22.10;54.80;;;;;;1596300;73;771;-60
2023/04/26 05:36:21;;;;;;;;;;;22.20;54.80;;;;;;1586133;74;1206;-60
2023/04/26 05:38:22;;;;;;;;;;;22.20;54.80;;;;;;1582609;73;780;-60
2023/04/26 05:40:25;;;;;;;;;;;22.10;54.90;;;;;;1585057;73;656;-60
2023/04/26 05:42:27;;;;;;;;;;;22.10;54.70;;;;;;1581375;73;1654;-60
2023/04/26 05:44:29;;;;;;;;;;;22.10;54.80;;;;;;1584762;73;1102;-60
2023/04/26 05:46:30;;;;;;;;;;;22.20;54.70;;;;;;1584423;73;1957;-57
2023/04/26 05:48:32;;;;;;;;;;;22.20;54.70;;;;;;1597871;73;765;-61
2023/04/26 05:50:35;;;;;;;;;;;22.20;55.20;;;;;;1591813;73;768;-60
2023/04/26 05:52:37;;;;;;;;;;;22.10;55.50;;;;;;1592995;74;763;-59
2023/04/26 05:54:39;;;;;;;;;;;22.10;55.50;;;;;;1594799;73;1160;-60
2023/04/26 05:56:41;;;;;;;;;;;22.10;55.40;;;;;;1584335;73;1480;-60
2023/04/26 05:58:43;;;;;;;;;;;22.10;55.50;;;;;;1589536;73;799;-60
2023/04/26 06:00:45;;;;;;;;;;;22.10;55.20;;;;;;1579614;73;774;-60
2023/04/26 06:02:47;;;;;;;;;;;22.10;55.20;;;;;;1587995;73;784;-61
2023/04/26 06:04:48;;;;;;;;;;;22.10;55.40;;;;;;1594444;73;1178;-60
2023/04/26 06:06:50;;;;;;;;;;;22.10;55.20;;;;;;1587714;73;1941;-59
2023/04/26 06:08:52;;;;;;;;;;;22.10;55.20;;;;;;1574514;74;652;-60
2023/04/26 06:10:54;;;;;;;;;;;22.10;55.20;;;;;;1587245;73;1460;-59
2023/04/26 06:12:56;;;;;;;;;;;22.10;54.90;;;;;;1590573;73;806;-58
2023/04/26 06:14:58;;;;;;;;;;;22.20;55.00;;;;;;1593098;73;1159;-59
2023/04/26 06:17:00;;;;;;;;;;;22.10;54.90;;;;;;1589273;73;779;-61
2023/04/26 06:19:02;;;;;;;;;;;22.10;54.90;;;;;;1596280;73;781;-60
2023/04/26 06:21:04;;;;;;;;;;;22.20;54.90;;;;;;1577424;73;689;-60
2023/04/26 06:23:05;;;;;;;;;;;22.10;54.90;;;;;;1594278;73;781;-60
2023/04/26 06:25:07;;;;;;;;;;;22.10;54.90;;;;;;1586115;73;1977;-59
2023/04/26 06:27:09;;;;;;;;;;;22.20;55.00;;;;;;1592133;73;767;-60
2023/04/26 06:29:11;;;;;;;;;;;22.20;54.80;;;;;;1583849;73;1104;-61
2023/04/26 06:31:13;;;;;;;;;;;22.20;54.60;;;;;;1585017;73;1346;-60
2023/04/26 06:33:15;;;;;;;;;;;22.20;54.40;;;;;;1589876;73;1377;-60
2023/04/26 06:35:17;;;;;;;;;;;22.30;54.30;;;;;;1583369;73;1250;-60
2023/04/26 06:37:19;;;;;;;;;;;22.30;54.10;;;;;;1594678;73;1367;-61
2023/04/26 06:39:21;;;;;;;;;;;22.30;53.90;;;;;;1588459;73;1383;-60
2023/04/26 06:41:22;;;;;;;;;;;22.20;53.70;;;;;;1586289;73;1369;-60
2023/04/26 06:43:25;;;;;;;;;;;22.20;53.70;;;;;;1589511;73;1330;-61
2023/04/26 06:45:26;;;;;;;;;;;22.20;53.60;;;;;;1590856;73;1945;-60
2023/04/26 06:47:28;;;;;;;;;;;22.20;53.60;;;;;;1580171;73;1357;-61
2023/04/26 06:49:30;;;;;;;;;;;22.20;53.50;;;;;;1578936;73;1343;-61
2023/04/26 06:51:32;;;;;;;;;;;22.20;53.50;;;;;;1586332;73;1232;-61
2023/04/26 06:53:34;;;;;;;;;;;22.20;53.40;;;;;;1576111;73;1096;-61
2023/04/26 06:55:36;;;;;;;;;;;22.20;53.50;;;;;;1592513;73;1477;-59
2023/04/26 06:57:38;;;;;;;;;;;22.30;53.60;;;;;;1582845;73;1405;-59
2023/04/26 06:59:40;;;;;;;;;;;22.20;53.40;;;;;;1584310;73;1479;-61
2023/04/26 07:01:42;;;;;;;;;;;22.20;53.50;;;;;;1584621;73;1445;-60
2023/04/26 07:03:44;;;;;;;;;;;22.40;53.10;;;;;;1587320;73;1419;-60
2023/04/26 07:05:46;;;;;;;;;;;22.50;52.10;;;;;;1587792;73;1944;-61
2023/04/26 07:07:48;;;;;;;;;;;22.50;51.30;;;;;;1591007;73;1356;-60
2023/04/26 07:09:50;;;;;;;;;;;22.50;50.40;;;;;;1591644;73;1344;-59
2023/04/26 07:11:52;;;;;;;;;;;22.50;50.00;;;;;;1560541;74;1370;-61
2023/04/26 07:13:54;;;;;;;;;;;22.50;49.40;;;;;;1591056;73;1368;-59
2023/04/26 07:15:56;;;;;;;;;;;22.50;48.90;;;;;;1588427;73;1153;-59
2023/04/26 07:17:58;;;;;;;;;;;22.50;48.10;;;;;;1588682;73;1389;-61
2023/04/26 07:20:00;;;;;;;;;;;22.50;47.80;;;;;;1591887;73;1361;-61
2023/04/26 07:22:03;;;;;;;;;;;22.50;47.40;;;;;;1571696;73;1396;-61
2023/04/26 07:24:05;;;;;;;;;;;22.50;46.80;;;;;;1585350;73;1516;-61
2023/04/26 07:26:09;;;;;;;;;;;22.50;46.50;;;;;;1581254;73;1937;-60
2023/04/26 07:28:11;;;;;;;;;;;22.50;46.30;;;;;;1580219;73;1647;-60
2023/04/26 07:30:13;;;;;;;;;;;22.60;45.90;;;;;;1580255;73;1474;-61
2023/04/26 07:32:15;;;;;;;;;;;22.50;45.50;;;;;;1586737;73;1376;-61
2023/04/26 07:34:16;;;;;;;;;;;22.60;45.40;;;;;;1593223;73;1365;-60
2023/04/26 07:36:18;;;;;;;;;;;22.60;44.70;;;;;;1586177;73;1367;-60
2023/04/26 07:38:20;;;;;;;;;;;22.50;44.70;;;;;;1584766;73;1375;-60
2023/04/26 07:40:23;;;;;;;;;;;22.50;44.40;;;;;;1580282;73;1385;-60
2023/04/26 07:42:25;;;;;;;;;;;22.50;44.40;;;;;;1587497;73;1354;-60
2023/04/26 07:44:27;;;;;;;;;;;22.50;43.70;;;;;;1581797;73;1361;-60
2023/04/26 07:46:28;;;;;;;;;;;22.60;43.60;;;;;;1586274;73;1935;-61
2023/04/26 07:48:30;;;;;;;;;;;22.60;43.40;;;;;;1584887;73;1440;-60
2023/04/26 07:50:32;;;;;;;;;;;22.50;43.60;;;;;;1586712;73;1375;-61
2023/04/26 07:52:34;;;;;;;;;;;22.50;43.60;;;;;;1588627;73;1352;-60
2023/04/26 07:54:36;;;;;;;;;;;22.60;43.20;;;;;;1573906;73;1337;-61
2023/04/26 07:56:38;;;;;;;;;;;22.60;43.40;;;;;;1584936;73;1336;-61
2023/04/26 07:58:40;;;;;;;;;;;22.60;42.90;;;;;;1573460;73;1128;-60
2023/04/26 08:00:42;;;;;;;;;;;22.60;42.80;;;;;;1583477;73;1591;-60
2023/04/26 08:02:48;;;;;;;;;;;22.60;42.90;;;;;;1592440;73;1335;-61
2023/04/26 08:04:55;;;;;;;;;;;22.70;42.80;;;;;;1586540;73;1501;-61
2023/04/26 08:06:57;;;;;;;;;;;22.60;42.60;;;;;;1590068;73;1953;-59
2023/04/26 08:08:59;;;;;;;;;;;22.60;42.00;;;;;;1580091;73;1443;-60
2023/04/26 08:11:01;;;;;;;;;;;22.50;42.30;;;;;;1578808;73;1235;-60
2023/04/26 08:13:03;;;;;;;;;;;22.50;42.10;;;;;;1589102;73;1386;-60
2023/04/26 08:15:05;;;;;;;;;;;22.40;41.80;;;;;;1588161;73;1402;-59
2023/04/26 08:17:12;;;;;;;;;;;22.40;42.00;;;;;;1570235;73;1340;-59
2023/04/26 08:19:13;;;;;;;;;;;22.40;41.80;;;;;;1577237;73;1552;-60
2023/04/26 08:21:15;;;;;;;;;;;22.40;41.50;;;;;;1584453;73;1415;-60
2023/04/26 08:23:18;;;;;;;;;;;22.40;41.60;;;;;;1586868;73;1442;-61
2023/04/26 08:25:20;;;;;;;;;;;22.30;41.30;;;;;;1584024;73;1372;-61
2023/04/26 08:27:22;;;;;;;;;;;22.40;41.70;;;;;;1583631;73;1949;-60
2023/04/26 08:29:24;;;;;;;;;;;22.30;41.30;;;;;;1586617;73;1361;-59
2023/04/26 08:31:26;;;;;;;;;;;22.30;41.20;;;;;;1586047;73;1397;-58
2023/04/26 08:33:28;;;;;;;;;;;22.20;41.00;;;;;;1587716;73;1441;-61
2023/04/26 08:35:30;;;;;;;;;;;22.10;41.20;;;;;;1589160;73;1226;-61
2023/04/26 08:37:31;;;;;;;;;;;22.10;41.30;;;;;;1573983;73;1955;-60
2023/04/26 08:39:33;;;;;;;;;;;22.10;40.60;;;;;;1585257;73;1433;-60
2023/04/26 08:41:37;;;;;;;;;;;22.10;40.90;;;;;;1592893;73;1405;-60
2023/04/26 08:43:39;;;;;;;;;;;22.10;40.60;;;;;;1581312;73;1443;-61
2023/04/26 08:45:41;;;;;;;;;;;22.00;41.00;;;;;;1589786;73;1570;-61
2023/04/26 08:47:45;;;;;;;;;;;22.00;40.90;;;;;;1578536;73;1941;-60
2023/04/26 08:49:49;;;;;;;;;;;22.00;40.60;;;;;;1585707;73;1152;-61
2023/04/26 08:51:50;;;;;;;;;;;22.00;40.60;;;;;;1595037;73;1431;-60
2023/04/26 08:53:52;;;;;;;;;;;22.10;40.60;;;;;;1592620;73;1419;-59
2023/04/26 08:55:54;;;;;;;;;;;22.00;40.20;;;;;;1590777;73;1391;-60
2023/04/26 08:57:56;;;;;;;;;;;22.00;40.40;;;;;;1586475;73;1473;-59
2023/04/26 08:59:58;;;;;;;;;;;22.10;40.10;;;;;;1571106;73;776;-61
2023/04/26 09:02:02;;;;;;;;;;;21.80;40.90;;;;;;1574659;74;758;-60
2023/04/26 09:04:03;;;;;;;;;;;21.80;42.90;;;;;;1581246;73;735;-61
2023/04/26 09:06:05;;;;;;;;;;;21.80;43.70;;;;;;1591887;73;1937;-61
2023/04/26 09:08:08;;;;;;;;;;;21.80;43.90;;;;;;1584531;73;747;-60
2023/04/26 09:10:10;;;;;;;;;;;21.80;44.50;;;;;;1589796;73;776;-60
2023/04/26 09:12:12;;;;;;;;;;;21.80;45.10;;;;;;1587716;73;1392;-61
2023/04/26 09:14:14;;;;;;;;;;;21.70;45.20;;;;;;1587207;73;760;-60
2023/04/26 09:16:16;;;;;;;;;;;21.80;45.10;;;;;;1584543;73;1168;-61
2023/04/26 09:18:18;;;;;;;;;;;21.80;45.70;;;;;;1585641;73;768;-61
2023/04/26 09:20:21;;;;;;;;;;;21.70;45.70;;;;;;1578456;74;635;-61
2023/04/26 09:22:30;;;;;;;;;;;21.70;46.30;;;;;;1575366;73;1368;-59
2023/04/26 09:24:51;;;;;;;;;;;21.70;46.20;;;;;;1585953;73;1380;-59
2023/04/26 09:27:05;;;;;;;;;;;21.70;46.00;;;;;;1590072;73;1948;-58
2023/04/26 09:29:12;;;;;;;;;;;21.70;46.00;;;;;;1577608;73;1544;-60
2023/04/26 09:31:16;;;;;;;;;;;21.70;46.00;;;;;;1580420;73;1688;-59
2023/04/26 09:33:18;;;;;;;;;;;21.80;46.10;;;;;;1576509;73;1561;-60
2023/04/26 09:35:21;;;;;;;;;;;21.80;46.20;;;;;;1589861;73;1443;-60
2023/04/26 09:37:23;;;;;;;;;;;21.80;46.30;;;;;;1591143;73;1377;-60
2023/04/26 09:39:36;;;;;;;;;;;21.80;46.30;;;;;;1590387;73;1354;-60
2023/04/26 09:41:44;;;;;;;;;;;21.90;46.50;;;;;;1580750;73;1412;-59
2023/04/26 09:43:46;;;;;;;;;;;21.90;46.50;;;;;;1591267;73;1375;-60
2023/04/26 09:45:51;;;;;;;;;;;21.90;46.60;;;;;;1556288;74;1472;-60
2023/04/26 09:47:54;;;;;;;;;;;21.90;46.80;;;;;;1592277;73;1944;-58
2023/04/26 09:49:56;;;;;;;;;;;22.00;46.80;;;;;;1577911;73;1089;-60
2023/04/26 09:52:01;;;;;;;;;;;21.90;46.90;;;;;;1588635;73;1453;-60
2023/04/26 09:54:03;;;;;;;;;;;22.00;47.00;;;;;;1590434;73;1375;-60
2023/04/26 09:56:12;;;;;;;;;;;22.00;47.10;;;;;;1586230;73;1438;-60
2023/04/26 09:58:15;;;;;;;;;;;22.00;47.20;;;;;;1590376;73;1388;-58
2023/04/26 10:00:18;;;;;;;;;;;22.10;47.30;;;;;;1588170;73;1072;-60
2023/04/26 10:02:21;;;;;;;;;;;22.10;47.30;;;;;;1587401;73;1463;-60
2023/04/26 10:04:23;;;;;;;;;;;22.10;47.40;;;;;;1588454;73;1431;-60
2023/04/26 10:06:26;;;;;;;;;;;22.20;47.50;;;;;;1578203;73;1390;-58
2023/04/26 10:08:28;;;;;;;;;;;22.20;47.50;;;;;;1579698;73;1375;-60
2023/04/26 10:10:30;;;;;;;;;;;22.20;47.50;;;;;;1589755;73;1347;-60
2023/04/26 10:12:32;;;;;;;;;;;22.30;47.60;;;;;;1580417;73;1221;-60
2023/04/26 10:14:34;;;;;;;;;;;22.30;47.60;;;;;;1562014;74;1274;-60
2023/04/26 10:16:36;;;;;;;;;;;22.20;47.60;;;;;;1576887;73;1363;-60
2023/04/26 10:18:38;;;;;;;;;;;22.20;47.60;;;;;;1582832;73;1367;-60
2023/04/26 10:20:41;;;;;;;;;;;22.30;47.70;;;;;;1583088;73;1229;-60
2023/04/26 10:22:45;;;;;;;;;;;22.20;47.60;;;;;;1583057;73;1374;-60
2023/04/26 10:24:47;;;;;;;;;;;22.30;47.80;;;;;;1579473;73;1457;-59
2023/04/26 10:26:53;;;;;;;;;;;22.30;47.80;;;;;;1584532;73;1942;-60
2023/04/26 10:28:56;;;;;;;;;;;22.30;47.90;;;;;;1587217;73;1056;-60
2023/04/26 10:30:58;;;;;;;;;;;22.30;47.90;;;;;;1589995;73;1444;-59
2023/04/26 10:33:02;;;;;;;;;;;22.30;48.00;;;;;;1585938;73;1341;-60
2023/04/26 10:35:16;;;;;;;;;;;22.40;48.00;;;;;;1582712;73;1377;-60
2023/04/26 10:37:17;;;;;;;;;;;22.40;48.00;;;;;;1574482;73;1529;-60
2023/04/26 10:39:20;;;;;;;;;;;22.30;48.00;;;;;;1582560;73;1386;-59
2023/04/26 10:41:30;;;;;;;;;;;22.30;48.00;;;;;;1585373;73;1352;-60
2023/04/26 10:43:32;;;;;;;;;;;22.40;47.90;;;;;;1591786;73;1357;-60
2023/04/26 10:45:33;;;;;;;;;;;22.50;48.10;;;;;;1592473;73;1359;-60
2023/04/26 10:47:36;;;;;;;;;;;22.50;48.00;;;;;;1588905;73;1937;-60
2023/04/26 10:49:47;;;;;;;;;;;22.40;48.00;;;;;;1583996;73;1431;-60
2023/04/26 10:52:10;;;;;;;;;;;22.40;48.00;;;;;;1588688;73;1422;-60
2023/04/26 10:54:12;;;;;;;;;;;22.40;48.00;;;;;;1573653;73;1614;-60
2023/04/26 10:56:24;;;;;;;;;;;22.40;48.10;;;;;;1582990;73;1375;-60
2023/04/26 10:58:33;;;;;;;;;;;22.30;48.10;;;;;;1581788;73;1418;-60
2023/04/26 11:00:35;;;;;;;;;;;22.30;48.10;;;;;;1586190;73;1432;-59
2023/04/26 11:02:54;;;;;;;;;;;22.40;48.30;;;;;;1585600;73;1431;-60
2023/04/26 11:04:57;;;;;;;;;;;22.40;48.40;;;;;;1592405;73;1418;-59
2023/04/26 11:07:00;;;;;;;;;;;22.20;48.40;;;;;;1581003;73;1937;-60
2023/04/26 11:09:02;;;;;;;;;;;22.20;48.50;;;;;;1560753;74;1386;-60
2023/04/26 11:11:07;;;;;;;;;;;22.20;48.50;;;;;;1590036;73;1376;-60
2023/04/26 11:13:09;;;;;;;;;;;22.30;48.60;;;;;;1595093;73;1248;-60
2023/04/26 11:15:12;;;;;;;;;;;22.30;48.60;;;;;;1587089;73;1316;-59
2023/04/26 11:17:14;;;;;;;;;;;22.30;48.70;;;;;;1594872;73;1368;-59
2023/04/26 11:19:16;;;;;;;;;;;22.20;48.60;;;;;;1591239;73;1384;-59
2023/04/26 11:21:18;;;;;;;;;;;22.30;48.70;;;;;;1585203;73;1363;-59
2023/04/26 11:23:20;;;;;;;;;;;22.30;48.70;;;;;;1580901;73;1420;-60
2023/04/26 11:25:24;;;;;;;;;;;22.30;48.80;;;;;;1582280;73;1206;-59
2023/04/26 11:27:27;;;;;;;;;;;22.30;48.80;;;;;;1591023;73;1937;-58
2023/04/26 11:29:28;;;;;;;;;;;22.30;48.90;;;;;;1588438;73;1430;-60
2023/04/26 11:31:31;;;;;;;;;;;22.40;48.90;;;;;;1586355;73;1369;-60
2023/04/26 11:33:35;;;;;;;;;;;22.40;48.90;;;;;;1580768;73;1370;-59
2023/04/26 11:35:39;;;;;;;;;;;22.40;49.00;;;;;;1585018;73;1391;-60
2023/04/26 11:37:41;;;;;;;;;;;22.40;48.90;;;;;;1574086;73;1355;-61
2023/04/26 11:39:44;;;;;;;;;;;22.30;49.00;;;;;;1586992;73;1367;-60
2023/04/26 11:41:46;;;;;;;;;;;22.40;49.00;;;;;;1584169;73;1427;-58
2023/04/26 11:43:48;;;;;;;;;;;22.40;49.10;;;;;;1592339;73;1345;-60
2023/04/26 11:45:50;;;;;;;;;;;22.40;49.10;;;;;;1589538;73;1487;-60
2023/04/26 11:47:52;;;;;;;;;;;22.40;48.70;;;;;;1588109;73;1938;-60
2023/04/26 11:49:54;;;;;;;;;;;22.40;48.60;;;;;;1590373;73;1391;-59
2023/04/26 11:51:56;;;;;;;;;;;22.30;48.60;;;;;;1594914;73;1360;-60
2023/04/26 11:53:58;;;;;;;;;;;22.30;48.60;;;;;;1589998;73;1364;-60
2023/04/26 11:56:00;;;;;;;;;;;22.30;48.60;;;;;;1552272;74;1365;-59
2023/04/26 11:58:03;;;;;;;;;;;22.30;48.70;;;;;;1588715;73;1434;-60
2023/04/26 12:00:13;;;;;;;;;;;22.30;48.80;;;;;;1582321;73;1724;-59
2023/04/26 12:02:14;;;;;;;;;;;22.20;48.70;;;;;;1589701;73;1420;-60
2023/04/26 12:04:16;;;;;;;;;;;22.30;48.90;;;;;;1593645;73;1153;-60
2023/04/26 12:06:19;;;;;;;;;;;22.30;49.00;;;;;;1589737;73;1381;-58
2023/04/26 12:08:22;;;;;;;;;;;22.20;48.90;;;;;;1590826;73;1937;-58
2023/04/26 12:10:36;;;;;;;;;;;22.30;49.10;;;;;;1581940;73;1365;-59